createdAt,value
2023-02-07T00:01:23.855Z,162.40
2023-02-07T00:03:52.158Z,175.60
2023-02-07T00:06:25.330Z,270.60
2023-02-07T00:08:53.472Z,166.00
2023-02-07T00:11:23.539Z,158.20
2023-02-07T00:13:53.957Z,141.80
2023-02-07T00:16:22.267Z,123.20
2023-02-07T00:18:49.835Z,100.50
2023-02-07T00:21:20.915Z,105.80
2023-02-07T00:23:48.618Z,416.70
2023-02-07T00:26:17.302Z,118.60
2023-02-07T00:28:45.066Z,113.10
2023-02-07T00:31:15.938Z,248.00
2023-02-07T00:33:44.824Z,129.00
2023-02-07T00:36:15.224Z,82.20
2023-02-07T00:38:43.023Z,80.30
2023-02-07T00:52:36.021Z,61.10
2023-02-07T00:59:08.233Z,55.20
2023-02-07T01:02:04.900Z,48.00
2023-02-07T01:04:32.250Z,305.10
2023-02-07T01:06:59.607Z,57.20
2023-02-07T01:09:26.913Z,50.40
2023-02-07T01:11:54.262Z,67.10
2023-02-07T01:14:21.602Z,49.50
2023-02-07T01:16:49.757Z,49.40
2023-02-07T01:19:18.553Z,42.70
2023-02-07T01:21:46.202Z,40.10
2023-02-07T01:24:13.400Z,51.30
2023-02-07T01:26:41.546Z,65.10
2023-02-07T01:29:10.583Z,39.90
2023-02-07T01:31:38.042Z,320.40
2023-02-07T01:34:05.887Z,198.20
2023-02-07T01:36:33.213Z,72.00
2023-02-07T01:39:00.349Z,46.60
2023-02-07T01:41:28.255Z,46.10
2023-02-07T01:44:05.835Z,39.70
2023-02-07T01:46:35.614Z,43.00
2023-02-07T01:49:09.057Z,43.70
2023-02-07T01:51:38.022Z,41.50
2023-02-07T01:54:10.545Z,41.40
2023-02-07T01:56:42.363Z,39.10
2023-02-07T01:59:09.593Z,41.10
2023-02-07T02:05:30.703Z,46.10
2023-02-07T02:09:17.487Z,47.30
2023-02-07T02:12:55.692Z,34.80
2023-02-07T02:16:29.088Z,42.20
2023-02-07T02:19:48.259Z,38.10
2023-02-07T02:23:39.369Z,35.40
2023-02-07T02:27:21.803Z,40.10
2023-02-07T02:31:12.790Z,38.30
2023-02-07T02:34:16.002Z,35.50
2023-02-07T02:37:36.657Z,39.40
2023-02-07T02:41:10.934Z,37.30
2023-02-07T02:45:00.676Z,38.20
2023-02-07T02:48:10.416Z,32.90
2023-02-07T02:51:57.602Z,34.00
2023-02-07T02:55:36.377Z,37.90
2023-02-07T03:02:41.080Z,34.30
2023-02-07T03:08:48.565Z,35.20
2023-02-07T03:12:21.706Z,30.80
2023-02-07T03:16:02.324Z,31.30
2023-02-07T03:19:35.042Z,27.90
2023-02-07T03:23:02.761Z,34.50
2023-02-07T03:26:28.625Z,29.00
2023-02-07T03:29:59.794Z,27.40
2023-02-07T03:33:46.696Z,35.90
2023-02-07T03:37:13.688Z,30.60
2023-02-07T03:40:40.716Z,30.90
2023-02-07T03:44:13.853Z,31.70
2023-02-07T03:48:01.018Z,35.00
2023-02-07T03:51:39.316Z,30.80
2023-02-07T03:55:20.600Z,32.10
2023-02-07T03:59:00.855Z,36.20
2023-02-07T04:02:50.385Z,34.50
2023-02-07T05:07:40.551Z,41.40
2023-02-07T05:10:08.009Z,39.60
2023-02-07T05:12:35.070Z,43.70
2023-02-07T05:15:02.372Z,42.40
2023-02-07T05:17:30.987Z,44.60
2023-02-07T05:19:58.114Z,39.60
2023-02-07T05:22:26.117Z,37.60
2023-02-07T05:24:53.295Z,35.10
2023-02-07T05:27:20.603Z,42.70
2023-02-07T05:29:48.215Z,40.50
2023-02-07T05:32:35.631Z,38.80
2023-02-07T05:35:03.196Z,42.30
2023-02-07T05:37:30.374Z,41.20
2023-02-07T05:39:57.672Z,45.00
2023-02-07T05:42:25.091Z,40.70
2023-02-07T05:44:52.817Z,40.30
2023-02-07T05:47:20.068Z,41.30
2023-02-07T05:49:47.215Z,42.40
2023-02-07T05:52:14.397Z,37.80
2023-02-07T05:54:42.108Z,36.70
2023-02-07T05:57:09.445Z,39.70
2023-02-07T05:59:36.612Z,39.60
2023-02-07T06:02:03.745Z,38.50
2023-02-07T06:04:31.278Z,43.90
2023-02-07T06:06:58.385Z,36.90
2023-02-07T06:09:26.009Z,35.40
2023-02-07T06:11:53.331Z,48.50
2023-02-07T06:14:20.755Z,45.80
2023-02-07T06:16:47.941Z,57.30
2023-02-07T06:19:15.556Z,54.90
2023-02-07T06:21:46.826Z,51.60
2023-02-07T06:24:16.144Z,55.80
2023-02-07T06:26:44.240Z,52.10
2023-02-07T06:29:11.655Z,58.30
2023-02-07T06:31:38.983Z,63.80
2023-02-07T06:34:07.116Z,59.60
2023-02-07T06:36:34.412Z,66.10
2023-02-07T06:39:01.591Z,62.60
2023-02-07T06:41:29.158Z,60.20
2023-02-07T06:43:56.931Z,60.70
2023-02-07T06:46:24.319Z,63.50
2023-02-07T06:48:51.857Z,65.00
2023-02-07T06:51:19.065Z,71.60
2023-02-07T06:53:46.245Z,72.70
2023-02-07T06:56:13.664Z,82.20
2023-02-07T06:58:40.765Z,87.30
2023-02-07T07:01:08.348Z,73.40
2023-02-07T07:03:36.372Z,75.50
2023-02-07T07:06:03.516Z,80.90
2023-02-07T07:08:30.902Z,90.90
2023-02-07T07:10:58.337Z,79.30
2023-02-07T07:13:25.595Z,99.70
2023-02-07T07:15:52.871Z,99.30
2023-02-07T07:18:20.266Z,96.60
2023-02-07T07:20:47.568Z,102.90
2023-02-07T07:23:14.847Z,115.30
2023-02-07T07:25:42.433Z,106.10
2023-02-07T07:28:09.617Z,114.00
2023-02-07T07:30:36.803Z,110.30
2023-02-07T07:33:04.490Z,122.50
2023-02-07T07:35:32.599Z,114.90
2023-02-07T07:37:59.937Z,119.70
2023-02-07T07:40:27.352Z,106.40
2023-02-07T07:42:54.653Z,118.70
2023-02-07T07:45:22.022Z,96.80
2023-02-07T07:47:49.294Z,114.60
2023-02-07T07:50:16.458Z,111.10
2023-02-07T07:52:43.633Z,120.70
2023-02-07T07:55:11.685Z,111.60
2023-02-07T07:57:39.072Z,122.30
2023-02-07T08:00:06.892Z,119.70
2023-02-07T08:02:34.241Z,107.70
2023-02-07T08:05:01.903Z,109.10
2023-02-07T08:07:29.068Z,114.80
2023-02-07T08:09:56.305Z,112.70
2023-02-07T08:12:23.463Z,128.20
2023-02-07T08:14:50.756Z,115.70
2023-02-07T08:17:18.039Z,126.40
2023-02-07T08:19:45.327Z,124.90
2023-02-07T08:22:14.832Z,132.80
2023-02-07T08:24:43.210Z,143.20
2023-02-07T08:27:10.460Z,146.70
2023-02-07T08:29:37.701Z,144.00
2023-02-07T08:32:05.908Z,147.80
2023-02-07T08:34:37.826Z,148.90
2023-02-07T08:37:09.992Z,146.00
2023-02-07T08:39:37.241Z,146.20
2023-02-07T08:42:05.913Z,133.70
2023-02-07T08:44:33.733Z,149.90
2023-02-07T08:47:01.132Z,148.20
2023-02-07T08:49:28.355Z,129.10
2023-02-07T08:51:55.510Z,134.80
2023-02-07T08:54:22.715Z,131.10
2023-02-07T08:56:49.805Z,127.00
2023-02-07T08:59:16.994Z,129.00
2023-02-07T09:01:44.342Z,138.30
2023-02-07T09:04:12.100Z,141.60
2023-02-07T09:06:40.463Z,142.60
2023-02-07T09:09:08.300Z,122.50
2023-02-07T09:11:35.654Z,128.00
2023-02-07T09:14:02.975Z,120.80
2023-02-07T09:16:30.288Z,137.20
2023-02-07T09:18:57.538Z,134.90
2023-02-07T09:21:24.872Z,132.30
2023-02-07T09:23:54.372Z,130.00
2023-02-07T09:26:23.455Z,139.30
2023-02-07T09:28:50.688Z,143.20
2023-02-07T09:31:18.107Z,141.50
2023-02-07T09:33:45.430Z,148.00
2023-02-07T09:36:43.995Z,157.70
2023-02-07T09:39:11.310Z,144.00
2023-02-07T09:42:16.109Z,160.90
2023-02-07T09:44:46.808Z,158.60
2023-02-07T09:47:17.249Z,158.20
2023-02-07T09:49:51.629Z,167.20
2023-02-07T09:52:34.262Z,151.80
2023-02-07T09:55:03.344Z,164.40
2023-02-07T09:57:46.400Z,161.80
2023-02-07T10:00:38.098Z,156.80
2023-02-07T10:03:11.745Z,165.20
2023-02-07T10:05:52.452Z,174.10
2023-02-07T10:08:21.272Z,159.20
2023-02-07T10:11:23.608Z,174.80
2023-02-07T10:14:12.623Z,153.80
2023-02-07T10:16:48.269Z,148.90
2023-02-07T10:19:22.303Z,146.10
2023-02-07T10:22:17.522Z,148.70
2023-02-07T10:24:58.585Z,157.00
2023-02-07T10:27:37.756Z,149.60
2023-02-07T10:30:16.358Z,167.60
2023-02-07T10:32:47.406Z,170.40
2023-02-07T10:35:25.570Z,174.30
2023-02-07T10:37:57.590Z,190.30
2023-02-07T10:40:26.926Z,194.30
2023-02-07T10:43:07.562Z,192.90
2023-02-07T10:45:34.853Z,200.20
2023-02-07T10:48:02.228Z,196.00
2023-02-07T10:50:41.644Z,199.30
2023-02-07T10:53:09.606Z,212.60
2023-02-07T10:55:48.632Z,209.70
2023-02-07T10:58:23.253Z,188.70
2023-02-07T11:00:55.422Z,171.30
2023-02-07T11:03:27.077Z,179.10
2023-02-07T11:06:02.995Z,172.10
2023-02-07T11:08:35.972Z,166.50
2023-02-07T11:11:23.585Z,167.10
2023-02-07T11:13:53.652Z,168.30
2023-02-07T11:16:23.735Z,148.10
2023-02-07T11:19:16.791Z,158.80
2023-02-07T11:21:46.112Z,159.10
2023-02-07T11:24:18.119Z,167.60
2023-02-07T11:27:04.811Z,163.00
2023-02-07T11:32:03.703Z,153.60
2023-02-07T11:34:53.418Z,161.70
2023-02-07T11:37:32.806Z,160.30
2023-02-07T11:40:22.595Z,158.30
2023-02-07T11:42:57.532Z,151.30
2023-02-07T11:45:25.572Z,159.20
2023-02-07T11:47:56.312Z,145.90
2023-02-07T11:50:32.535Z,163.00
2023-02-07T11:55:40.668Z,152.10
2023-02-07T11:58:18.455Z,166.10
2023-02-07T12:00:47.719Z,139.40
2023-02-07T12:03:27.234Z,144.70
2023-02-07T12:06:01.775Z,148.70
2023-02-07T12:08:34.689Z,142.90
2023-02-07T12:11:19.560Z,154.20
2023-02-07T12:13:58.397Z,149.60
2023-02-07T12:16:40.526Z,137.90
2023-02-07T12:19:15.216Z,136.60
2023-02-07T12:21:48.897Z,128.10
2023-02-07T12:24:54.799Z,127.30
2023-02-07T12:27:32.957Z,145.20
2023-02-07T12:30:12.448Z,137.60
2023-02-07T12:32:56.689Z,133.10
2023-02-07T12:36:04.441Z,129.40
2023-02-07T12:38:39.074Z,134.60
2023-02-07T12:41:42.721Z,133.90
2023-02-07T12:44:29.059Z,131.70
2023-02-07T12:47:20.169Z,129.40
2023-02-07T12:50:18.227Z,113.20
2023-02-07T12:53:09.416Z,110.10
2023-02-07T12:56:04.486Z,93.00
2023-02-07T12:58:41.576Z,108.40
2023-02-07T13:01:25.333Z,111.10
2023-02-07T13:04:10.102Z,105.30
2023-02-07T13:07:00.700Z,105.90
2023-02-07T13:09:41.493Z,95.80
2023-02-07T13:12:23.049Z,93.30
2023-02-07T13:15:17.924Z,77.70
2023-02-07T13:18:07.468Z,77.70
2023-02-07T13:20:41.020Z,72.80
2023-02-07T13:23:34.482Z,68.60
2023-02-07T13:26:11.456Z,58.60
2023-02-07T13:29:05.926Z,54.10
2023-02-07T13:31:44.925Z,58.20
2023-02-07T13:34:20.603Z,58.60
2023-02-07T13:36:51.020Z,47.50
2023-02-07T13:39:42.850Z,49.50
2023-02-07T13:42:31.728Z,50.60
2023-02-07T13:45:27.981Z,46.80
2023-02-07T13:48:12.330Z,50.80
2023-02-07T13:50:55.066Z,45.20
2023-02-07T13:53:31.639Z,46.90
2023-02-07T13:56:09.597Z,45.50
2023-02-07T13:58:55.564Z,43.50
2023-02-07T14:01:25.545Z,51.40
2023-02-07T14:04:20.225Z,46.30
2023-02-07T14:07:04.177Z,48.00
2023-02-07T14:09:52.264Z,46.30
2023-02-07T14:12:25.661Z,41.90
2023-02-07T14:15:02.500Z,46.40
2023-02-07T14:17:30.929Z,45.70
2023-02-07T14:20:04.076Z,44.10
2023-02-07T14:22:52.698Z,42.30
2023-02-07T14:25:41.745Z,41.10
2023-02-07T14:28:35.038Z,47.10
2023-02-07T14:31:20.465Z,39.60
2023-02-07T14:34:12.976Z,41.10
2023-02-07T14:36:41.801Z,44.80
2023-02-07T14:39:21.076Z,47.10
2023-02-07T14:41:51.849Z,40.00
2023-02-07T14:44:38.599Z,42.00
2023-02-07T14:50:39.627Z,42.80
2023-02-07T14:54:11.041Z,43.60
2023-02-07T14:57:43.601Z,45.60
2023-02-07T15:01:31.402Z,41.60
2023-02-07T15:05:19.401Z,42.70
2023-02-07T15:09:07.068Z,49.40
2023-02-07T15:12:55.913Z,43.80
2023-02-07T15:16:46.480Z,46.80
2023-02-07T15:20:33.645Z,44.40
2023-02-07T15:24:21.193Z,50.20
2023-02-07T15:28:15.564Z,55.70
2023-02-07T15:32:20.758Z,44.60
2023-02-07T15:36:08.485Z,46.10
2023-02-07T15:39:55.983Z,43.90
2023-02-07T15:44:10.648Z,47.50
2023-02-07T15:48:10.200Z,45.00
2023-02-07T15:51:42.356Z,44.10
2023-02-07T15:55:30.138Z,42.90
2023-02-07T15:59:19.390Z,40.90
2023-02-07T16:03:07.114Z,38.00
2023-02-07T16:06:55.887Z,42.50
2023-02-07T16:10:56.302Z,44.70
2023-02-07T16:14:53.337Z,46.40
2023-02-07T16:18:44.000Z,51.50
2023-02-07T16:22:33.488Z,48.60
2023-02-07T16:26:21.240Z,57.50
2023-02-07T16:29:59.005Z,48.30
2023-02-07T16:33:31.183Z,53.70
2023-02-07T16:37:19.257Z,46.60
2023-02-07T16:44:38.258Z,52.90
2023-02-07T16:48:28.912Z,54.50
2023-02-07T16:52:20.854Z,63.40
2023-02-07T16:56:12.759Z,63.80
2023-02-07T17:00:01.571Z,53.00
2023-02-07T17:03:49.339Z,60.50
2023-02-07T17:07:39.224Z,52.50
2023-02-07T17:11:30.594Z,57.50
2023-02-07T17:15:19.189Z,60.10
2023-02-07T17:18:54.061Z,54.80
2023-02-07T17:22:43.459Z,56.90
2023-02-07T17:26:32.273Z,61.70
2023-02-07T17:30:07.713Z,54.20
2023-02-07T17:33:59.230Z,58.10
2023-02-07T17:37:35.135Z,56.30
2023-02-07T17:40:06.685Z,56.20
2023-02-07T17:43:35.048Z,54.80
2023-02-07T17:46:07.523Z,61.30
2023-02-07T17:49:41.551Z,55.80
2023-02-07T17:53:33.083Z,53.70
2023-02-07T17:57:12.205Z,71.30
2023-02-07T18:00:38.370Z,60.30
2023-02-07T18:04:34.672Z,56.40
2023-02-07T18:08:24.391Z,96.30
2023-02-07T18:11:53.507Z,71.40
2023-02-07T18:15:42.902Z,61.90
2023-02-07T18:19:33.682Z,65.60
2023-02-07T18:23:23.761Z,59.10
2023-02-07T18:27:20.404Z,54.50
2023-02-07T18:31:09.720Z,51.20
2023-02-07T18:35:01.037Z,56.30
2023-02-07T18:38:53.028Z,55.90
2023-02-07T18:42:47.544Z,60.90
2023-02-07T18:46:20.470Z,62.10
2023-02-07T18:50:22.515Z,59.40
2023-02-07T18:58:08.792Z,57.50
2023-02-07T19:02:06.625Z,57.40
2023-02-07T19:06:03.404Z,53.40
2023-02-07T19:09:55.899Z,63.30
2023-02-07T19:13:31.384Z,65.90
2023-02-07T19:17:00.275Z,64.40
2023-02-07T19:20:29.432Z,61.30
2023-02-07T19:24:22.387Z,63.20
2023-02-07T19:28:15.434Z,58.60
2023-02-07T19:32:06.874Z,68.70
2023-02-07T19:36:00.416Z,63.50
2023-02-07T19:39:51.708Z,59.30
2023-02-07T19:43:45.401Z,65.90
2023-02-07T19:47:37.273Z,81.00
2023-02-07T19:51:33.464Z,72.30
2023-02-07T19:55:07.446Z,70.70
2023-02-07T19:58:58.882Z,79.70
2023-02-07T20:02:54.661Z,78.60
2023-02-07T20:06:49.336Z,84.30
2023-02-07T20:10:33.583Z,62.50
2023-02-07T20:14:10.399Z,62.80
2023-02-07T20:18:00.214Z,65.10
2023-02-07T20:21:52.178Z,64.90
2023-02-07T20:25:41.414Z,65.40
2023-02-07T20:29:34.283Z,63.70
2023-02-07T20:33:23.918Z,67.60
2023-02-07T20:40:49.602Z,80.50
2023-02-07T20:44:43.171Z,60.50
2023-02-07T20:48:34.176Z,75.20
2023-02-07T20:52:23.105Z,64.90
2023-02-07T20:55:52.926Z,70.60
2023-02-07T20:59:47.038Z,76.20
2023-02-07T21:03:35.219Z,67.10
2023-02-07T21:07:24.890Z,78.00
2023-02-07T21:14:45.189Z,63.90
2023-02-07T21:22:20.060Z,72.20
2023-02-07T21:26:09.594Z,78.80
2023-02-07T21:30:01.118Z,82.50
2023-02-07T21:33:50.148Z,87.70
2023-02-07T21:37:39.551Z,119.00
2023-02-07T21:41:29.990Z,70.00
2023-02-07T21:45:18.280Z,74.50
2023-02-07T21:49:06.451Z,81.60
2023-02-07T21:52:56.521Z,79.50
2023-02-07T21:56:46.678Z,66.90
2023-02-07T22:00:38.114Z,71.40
2023-02-07T22:04:27.194Z,81.20
2023-02-07T22:08:15.205Z,81.00
2023-02-07T22:12:09.216Z,76.30
2023-02-07T22:15:56.900Z,79.20
2023-02-07T22:19:45.398Z,68.80
2023-02-07T22:23:33.439Z,76.80
2023-02-07T22:27:21.520Z,74.90
2023-02-07T22:31:10.262Z,74.50
2023-02-07T22:34:57.913Z,81.70
2023-02-07T22:38:45.778Z,82.30
2023-02-07T22:42:34.610Z,82.30
2023-02-07T22:46:25.052Z,94.10
2023-02-07T22:50:13.960Z,96.00
2023-02-07T22:54:03.622Z,88.30
2023-02-07T22:57:51.329Z,89.50
2023-02-07T23:01:39.464Z,87.40
2023-02-07T23:05:28.664Z,87.20
2023-02-07T23:09:15.566Z,93.50
2023-02-07T23:13:05.911Z,99.90
2023-02-07T23:16:54.052Z,104.70
2023-02-07T23:20:42.255Z,102.30
2023-02-07T23:24:33.071Z,100.20
2023-02-07T23:28:22.181Z,109.70
2023-02-07T23:32:09.701Z,96.10
2023-02-07T23:35:58.917Z,93.00
2023-02-07T23:39:48.048Z,95.30
2023-02-07T23:43:38.309Z,100.20
2023-02-07T23:47:26.478Z,98.30
2023-02-07T23:51:15.429Z,99.60
2023-02-07T23:55:04.110Z,103.80
2023-02-07T23:58:54.558Z,105.00
